Latest Weather Observations for Omeo

IDV60801

Issued at 11:02 am EST Sunday 26 April 2015 (issued every 30 minutes, with the page automatically refreshed every 10 minutes)

About weather observations | Map of weather stations | Latest weather observations for VIC | Other Formats
Station Details ID: 083090 Name: OMEO Lat: -37.10 Lon: 147.60 Height: 689.8 m
Data from the previous 72 hours. | See also: Recent months at Omeo
Date/Time
EST
Temp
°C
App
Temp
°C
Dew
Point
Rel
Hum
%
Delta-T
°C
Wind Press
QNH
hPa
Press
MSL
hPa
Rain
since 9 am
mm
Dir
 
Spd
km/h
Gust
km/h
Spd
kts
Gust
kts
26/11:00am 9.8 5.1 6.0 77 1.8 SSW 20 33 11 18 1015.2 1014.3 0.0
26/10:30am 10.2 5.8 6.4 77 1.8 S 19 33 10 18 1015.0 1014.1 0.0
26/10:00am 10.0 6.1 6.9 81 1.5 S 17 32 9 17 1014.7 1013.9 0.0
26/09:30am 9.7 6.7 7.5 86 1.1 SSE 13 28 7 15 1014.5 1013.7 0.0
26/09:00am 10.1 7.9 7.9 86 1.1 S 9 17 5 9 1014.3 1013.5 6.0
26/08:30am 9.7 7.6 8.1 90 0.8 SSE 9 17 5 9 1014.1 1013.3 6.0
26/08:00am 9.3 7.1 7.7 90 0.8 S 9 15 5 8 1013.7 1012.8 6.0
26/07:30am 9.0 6.7 7.6 91 0.7 S 9 15 5 8 1013.3 1012.5 6.0
26/07:00am 8.9 6.2 7.4 90 0.7 S 11 19 6 10 1012.7 1011.9 6.0
26/06:30am 9.3 6.7 7.9 91 0.7 S 11 20 6 11 1012.3 1011.4 6.0
26/06:00am 9.4 6.9 8.3 93 0.6 S 11 17 6 9 1011.9 1011.0 6.0
26/05:30am 9.4 7.3 8.3 93 0.6 SSE 9 17 5 9 1011.5 1010.7 6.0
26/05:00am 9.3 7.2 8.4 94 0.5 S 9 13 5 7 1011.3 1010.4 6.0
26/04:30am 9.2 7.1 8.3 94 0.5 S 9 17 5 9 1011.0 1010.1 6.0
26/04:00am 9.0 7.2 8.1 94 0.5 S 7 11 4 6 1010.9 1010.0 6.0
26/03:30am 9.0 7.4 8.1 94 0.4 S 6 9 3 5 1010.8 1009.9 6.0
26/03:00am 9.1 7.4 8.2 94 0.5 S 7 11 4 6 1011.1 1010.2 6.0
26/02:30am 9.0 6.9 8.2 95 0.4 S 9 17 5 9 1011.1 1010.2 6.0
26/02:00am 8.7 7.8 7.9 95 0.4 SSE 2 7 1 4 1011.0 1010.1 6.0
26/01:30am 8.7 7.8 7.9 95 0.4 SSW 2 6 1 3 1011.0 1010.1 6.0
26/01:00am 8.7 7.8 7.8 94 0.4 SSW 2 6 1 3 1011.0 1010.1 6.0
26/12:30am 8.6 7.7 7.7 94 0.4 S 2 6 1 3 1011.0 1010.1 5.8
26/12:00am 8.6 8.0 7.4 92 0.6 CALM 0 0 0 0 1010.9 1010.0 5.0
 
Date/Time
EST
Temp
°C
App
Temp
°C
Dew
Point
Rel
Hum
%
Delta-T
°C
Wind Press
QNH
hPa
Press
MSL
hPa
Rain
since 9 am
mm
Dir
 
Spd
km/h
Gust
km/h
Spd
kts
Gust
kts
25/11:30pm 8.7 8.1 7.3 91 0.7 CALM 0 0 0 0 1011.1 1010.2 4.6
25/11:00pm 8.9 8.3 7.5 91 0.7 CALM 0 0 0 0 1011.1 1010.2 4.6
25/10:30pm 9.0 8.4 7.6 91 0.7 CALM 0 0 0 0 1011.1 1010.2 4.6
25/10:00pm 9.0 8.5 7.8 92 0.6 CALM 0 0 0 0 1011.0 1010.1 4.6
25/09:30pm 9.0 8.1 7.6 91 0.7 SSE 2 7 1 4 1011.1 1010.2 4.6
25/09:00pm 9.0 7.7 7.5 90 0.7 SSE 4 7 2 4 1010.9 1010.0 4.6
25/08:30pm 9.2 7.9 7.6 90 0.8 SSE 4 7 2 4 1010.9 1010.0 4.6
25/08:00pm 9.5 7.7 7.8 89 0.8 SSE 7 11 4 6 1010.7 1009.8 4.6
25/07:30pm 9.6 7.8 7.9 89 0.8 SSE 7 11 4 6 1010.4 1009.5 4.6
25/07:00pm 9.4 7.4 7.3 87 1.0 SSE 7 11 4 6 1010.0 1009.1 4.6
25/06:30pm 9.1 8.0 6.9 86 1.1 S 2 7 1 4 1009.7 1008.8 4.6
25/06:00pm 9.1 8.3 6.5 84 1.3 CALM 0 0 0 0 1009.2 1008.3 4.6
25/05:30pm 9.5 8.7 6.6 82 1.4 CALM 0 0 0 0 1008.5 1007.6 4.6
25/05:00pm 10.5 9.7 6.3 75 2.0 CALM 0 0 0 0 1008.4 1007.5 4.6
25/04:30pm 10.9 10.0 6.1 72 2.3 CALM 0 2 0 1 1008.3 1007.4 4.6
25/04:00pm 11.3 10.4 6.0 70 2.6 CALM 0 6 0 3 1008.3 1007.4 4.6
25/03:30pm 11.4 9.5 6.5 72 2.4 E 6 7 3 4 1008.2 1007.3 4.6
25/03:00pm 11.4 10.5 6.1 70 2.6 CALM 0 0 0 0 1008.0 1007.1 4.6
25/02:30pm 11.2 9.0 6.1 71 2.5 NNW 7 11 4 6 1008.1 1007.2 4.6
25/02:00pm 11.4 10.1 6.1 70 2.6 N 2 9 1 5 1008.1 1007.2 4.6
25/01:30pm 11.0 9.4 6.4 73 2.2 ENE 4 7 2 4 1008.3 1007.4 4.6
25/01:00pm 11.0 9.7 6.2 72 2.3 ENE 2 6 1 3 1008.6 1007.7 4.6
25/12:30pm 11.3 9.6 8.3 82 1.5 ESE 7 11 4 6 1008.8 1007.8 4.6
25/12:00pm 9.0 6.9 6.6 85 1.2 ESE 7 11 4 6 1009.3 1008.4 4.6
25/11:30am 7.9 4.5 5.9 87 0.9 WSW 13 26 7 14 1009.3 1008.4 4.6
25/11:00am 7.7 5.5 6.0 89 0.8 W 7 19 4 10 1010.1 1009.2 3.4
25/10:30am 8.3 6.4 7.5 95 0.4 NW 7 13 4 7 1009.8 1008.9 2.4
25/10:00am 7.9 5.2 7.3 96 0.3 NNW 11 17 6 9 1009.8 1008.9 0.6
25/09:30am 7.6 5.8 7.0 96 0.3 NW 6 7 3 4 1009.2 1008.3 0.0
25/09:00am 7.4 6.7 6.8 96 0.3 CALM 0 6 0 3 1008.8 1007.8 1.4
25/08:30am 7.8 7.2 7.4 97 0.2 CALM 0 0 0 0 1008.6 1007.7 1.4
25/08:00am 7.1 5.6 6.7 97 0.2 WNW 4 7 2 4 1008.4 1007.5 1.4
25/07:30am 6.3 5.3 5.7 96 0.3 CALM 0 0 0 0 1008.2 1007.3 1.4
25/07:00am 5.8 3.6 5.2 96 0.3 W 6 11 3 6 1007.9 1007.0 1.4
25/06:30am 6.4 5.1 5.8 96 0.3 SE 2 6 1 3 1007.6 1006.6 1.4
25/06:00am 7.0 6.2 6.4 96 0.3 CALM 0 0 0 0 1007.0 1006.1 1.4
25/05:30am 7.1 5.5 6.4 95 0.3 WNW 4 7 2 4 1006.9 1006.0 1.4
25/05:00am 7.5 5.1 6.8 95 0.3 NNW 9 11 5 6 1007.0 1006.1 1.4
25/04:30am 7.6 5.6 7.0 96 0.3 NNW 7 11 4 6 1007.6 1006.6 1.4
25/04:00am 7.5 6.0 6.8 95 0.3 NE 4 9 2 5 1007.4 1006.4 1.4
25/03:30am 7.2 6.0 6.5 95 0.3 N 2 7 1 4 1007.6 1006.6 1.4
25/03:00am 7.8 5.8 6.9 94 0.4 NW 7 9 4 5 1007.5 1006.5 1.4
25/02:30am 8.1 6.3 7.0 93 0.5 NW 6 7 3 4 1007.5 1006.5 1.4
25/02:00am 8.6 6.9 7.4 92 0.6 NNE 6 9 3 5 1007.7 1006.8 1.4
25/01:30am 8.8 6.9 7.4 91 0.7 N 7 7 4 4 1007.7 1006.8 1.4
25/01:00am 9.4 7.2 7.8 90 0.8 NNW 9 11 5 6 1007.7 1006.8 1.4
25/12:30am 9.4 7.6 7.8 90 0.8 NNW 7 11 4 6 1007.6 1006.6 1.4
25/12:00am 9.4 7.2 7.7 89 0.8 NNW 9 13 5 7 1007.6 1006.6 1.4
 
Date/Time
EST
Temp
°C
App
Temp
°C
Dew
Point
Rel
Hum
%
Delta-T
°C
Wind Press
QNH
hPa
Press
MSL
hPa
Rain
since 9 am
mm
Dir
 
Spd
km/h
Gust
km/h
Spd
kts
Gust
kts
24/11:30pm 10.3 7.4 8.2 87 1.1 N 13 15 7 8 1007.6 1006.6 1.4
24/11:00pm 10.0 8.2 7.9 87 1.1 N 7 9 4 5 1007.7 1006.8 1.4
24/10:30pm 10.0 8.2 7.9 87 1.1 NNW 7 11 4 6 1007.7 1006.8 1.4
24/10:00pm 10.2 7.7 8.1 87 1.1 NNW 11 13 6 7 1007.7 1006.8 1.4
24/09:30pm 10.8 7.9 8.2 84 1.3 NNW 13 15 7 8 1007.5 1006.5 1.4
24/09:00pm 11.5 8.9 9.2 86 1.2 NNW 13 17 7 9 1007.4 1006.4 1.4
24/08:30pm 11.7 9.0 8.9 83 1.4 NNW 13 17 7 9 1007.0 1006.1 1.4
24/08:00pm 12.6 10.0 9.4 81 1.7 NNW 13 20 7 11 1006.8 1005.9 1.4
24/07:30pm 12.8 10.7 9.8 82 1.6 NNW 11 17 6 9 1006.8 1005.9 1.4
24/07:00pm 12.9 10.5 9.9 82 1.6 NNW 13 19 7 10 1006.6 1005.7 1.4
24/06:30pm 12.9 10.1 9.9 82 1.6 NNW 15 26 8 14 1006.2 1005.2 1.4
24/06:00pm 13.2 10.0 9.8 80 1.8 NNW 17 24 9 13 1005.9 1004.9 1.4
24/05:30pm 13.3 10.9 10.1 81 1.7 N 13 20 7 11 1005.4 1004.5 1.4
24/05:00pm 13.9 11.1 9.9 77 2.2 N 15 22 8 12 1005.2 1004.3 1.4
24/04:30pm 14.2 11.9 10.6 79 2.0 N 13 20 7 11 1005.0 1004.0 1.4
24/04:00pm 14.7 12.5 10.9 78 2.1 N 13 20 7 11 1004.9 1003.9 1.4
24/03:30pm 14.7 11.8 10.9 78 2.1 N 17 24 9 13 1004.9 1003.9 1.4
24/03:00pm 14.8 11.6 11.4 80 1.9 N 19 28 10 15 1004.8 1003.8 1.4
24/02:30pm 14.2 11.0 11.4 83 1.5 N 19 26 10 14 1004.9 1003.9 1.4
24/02:00pm 14.5 11.4 11.5 82 1.7 NNW 19 26 10 14 1005.0 1004.0 1.4
24/01:30pm 14.9 12.0 12.2 84 1.5 N 19 26 10 14 1005.0 1004.0 1.4
24/01:00pm 14.9 13.3 13.9 94 0.6 NNW 15 24 8 13 1005.1 1004.1 1.4
24/12:30pm 14.1 12.9 13.9 99 0.1 NNW 13 20 7 11 1005.4 1004.5 1.4
24/12:00pm 13.8 12.5 13.6 99 0.1 NNW 13 22 7 12 1005.9 1004.9 1.4
24/11:30am 13.2 11.7 13.0 99 0.1 NNW 13 17 7 9 1006.2 1005.2 1.4
24/11:00am 13.0 12.2 12.8 99 0.1 N 9 11 5 6 1006.5 1005.6 1.2
24/10:30am 12.9 12.6 12.7 99 0.1 NNW 6 9 3 5 1006.5 1005.6 1.0
24/10:00am 12.4 11.9 12.2 99 0.1 NNW 6 9 3 5 1006.6 1005.7 1.0
24/09:30am 12.4 13.1 12.2 99 0.1 CALM 0 6 0 3 1006.7 1005.8 0.6
24/09:00am 12.1 11.6 11.9 99 0.1 N 6 9 3 5 1006.9 1006.0 7.8
24/08:30am 12.0 11.2 11.8 99 0.1 WNW 7 9 4 5 1007.1 1006.2 6.4
24/08:00am 12.0 11.2 11.8 99 0.1 NNW 7 11 4 6 1007.1 1006.2 5.8
24/07:30am 11.8 10.6 11.6 99 0.1 N 9 13 5 7 1007.0 1006.1 4.8
24/07:00am 11.8 10.2 11.6 99 0.1 N 11 15 6 8 1006.9 1006.0 4.4
24/06:30am 11.7 10.5 11.5 99 0.1 NNW 9 11 5 6 1006.9 1006.0 3.6
24/06:00am 11.8 10.2 11.6 99 0.1 N 11 17 6 9 1007.1 1006.2 1.2
24/05:30am 11.7 9.7 11.5 99 0.1 N 13 19 7 10 1007.3 1006.3 1.0
24/05:00am 11.6 9.6 11.4 99 0.1 N 13 17 7 9 1007.3 1006.3 1.0
24/04:30am 11.6 9.6 11.4 99 0.1 N 13 17 7 9 1007.5 1006.5 1.0
24/04:00am 11.7 10.4 11.4 98 0.2 NNW 9 13 5 7 1007.6 1006.6 1.0
24/03:30am 11.7 10.4 11.4 98 0.2 N 9 15 5 8 1007.8 1006.9 1.0
24/03:00am 11.7 10.4 11.4 98 0.2 NNW 9 13 5 7 1008.3 1007.4 1.0
24/02:30am 11.4 11.4 11.1 98 0.2 NNE 2 7 1 4 1008.8 1007.8 1.0
24/02:00am 11.4 10.4 11.1 98 0.2 N 7 9 4 5 1009.2 1008.3 1.0
24/01:30am 11.3 11.2 10.8 97 0.3 NW 2 6 1 3 1009.5 1008.6 1.0
24/01:00am 11.2 11.4 10.7 97 0.3 CALM 0 0 0 0 1009.7 1008.8 1.0
24/12:30am 11.6 12.0 11.1 97 0.3 CALM 0 0 0 0 1010.5 1009.6 0.8
24/12:00am 11.6 12.0 11.1 97 0.3 CALM 0 0 0 0 1010.7 1009.8 0.8
 
Date/Time
EST
Temp
°C
App
Temp
°C
Dew
Point
Rel
Hum
%
Delta-T
°C
Wind Press
QNH
hPa
Press
MSL
hPa
Rain
since 9 am
mm
Dir
 
Spd
km/h
Gust
km/h
Spd
kts
Gust
kts
23/11:30pm 11.7 12.1 11.2 97 0.3 CALM 0 0 0 0 1010.9 1010.0 0.8
23/11:00pm 12.4 13.0 11.8 96 0.3 CALM 0 0 0 0 1011.3 1010.4 0.8
23/10:30pm 12.6 13.3 12.1 97 0.3 CALM 0 0 0 0 1012.0 1011.1 0.8
23/10:00pm 12.5 12.3 11.9 96 0.3 S 4 7 2 4 1012.0 1011.1 0.8
23/09:30pm 12.7 12.6 12.1 96 0.3 SSW 4 7 2 4 1012.2 1011.3 0.8
23/09:00pm 12.9 13.6 12.3 96 0.3 CALM 0 0 0 0 1012.4 1011.5 0.8
23/08:30pm 13.1 13.9 12.5 96 0.3 CALM 0 0 0 0 1013.1 1012.3 0.8
23/08:00pm 13.1 13.9 12.5 96 0.3 CALM 0 0 0 0 1013.1 1012.3 0.8
23/07:30pm 13.1 12.7 12.5 96 0.3 S 6 7 3 4 1013.5 1012.6 0.8
23/07:00pm 13.1 13.1 12.3 95 0.4 S 4 7 2 4 1013.6 1012.7 0.8
23/06:30pm 13.4 12.9 12.6 95 0.5 SSE 7 13 4 7 1013.7 1012.8 0.8
23/06:00pm 13.5 12.6 12.6 94 0.5 SE 9 15 5 8 1013.3 1012.5 0.4
23/05:30pm 13.7 12.9 12.8 94 0.5 SE 9 15 5 8 1013.3 1012.5 0.4
23/05:00pm 14.1 13.0 13.0 93 0.6 SE 11 17 6 9 1013.0 1012.2 0.4
23/04:30pm 14.5 13.0 13.0 91 0.9 SE 13 19 7 10 1013.0 1012.2 0.4
23/04:00pm 14.7 13.6 13.2 91 0.9 SE 11 19 6 10 1013.2 1012.4 0.4
23/03:30pm 14.6 12.6 12.8 89 1.0 SE 15 24 8 13 1013.6 1012.7 0.4
23/03:00pm 15.3 14.2 13.1 87 1.3 SE 11 19 6 10 1013.8 1012.9 0.2
23/02:30pm 15.8 14.3 13.1 84 1.6 SSE 13 20 7 11 1014.0 1013.2 0.2
23/02:00pm 15.9 14.6 13.6 86 1.3 SE 13 22 7 12 1014.1 1013.3 0.2
23/01:30pm 15.9 14.1 13.4 85 1.4 SE 15 28 8 15 1014.5 1013.7 0.2
23/01:00pm 16.1 14.4 13.6 85 1.5 SE 15 24 8 13 1014.8 1014.0 0.2
23/12:30pm 15.6 13.7 14.1 91 0.9 SE 17 26 9 14 1015.3 1014.5 0.2
23/12:00pm 14.6 13.7 13.6 94 0.6 S 11 17 6 9 1016.2 1015.4 0.2
23/11:30am 14.9 14.5 14.1 95 0.5 S 9 17 5 9 1016.9 1016.1 0.2

Other Formats:

Comma delimited format used in spreadsheet applications
http://www.bom.gov.au/fwo/IDV60801/IDV60801.94908.axf

JavaScript Object Notation format (JSON) in row-major order
http://www.bom.gov.au/fwo/IDV60801/IDV60801.94908.json